Aviation Digital Data Service (ADDS)

Output produced by METARs form (1208 UTC 24 March 2017)
found at http://www.aviationweather.gov/adds/metars/
 
GABS 241200Z 10015KT 080V140 CAVOK 37/11 Q1013 NOSIG
TAF GABS 241100Z 2412/2518 12010KT CAVOK 
     PROB30 
     TEMPO 2415/2422 TS FEW033 FEW040CB 
     BECMG 2418/2420 20008KT 
     PROB40 
     TEMPO 2414/2418 TS SCT033 FEW040CB
       
TAF GAGO 241100Z 2412/2512 35012KT 8000 NSC 
     PROB40 
     TEMPO 2412/2416 36015G25KT 4000 BLDU 
     PROB40 
     TEMPO 2508/2512 02015G25KT 4000 BLDU
       
GABS 241200Z 10015KT 080V140 CAVOK 37/11 Q1013 NOSIG
TAF GABS 241100Z 2412/2518 12010KT CAVOK 
     PROB30 
     TEMPO 2415/2422 TS FEW033 FEW040CB 
     BECMG 2418/2420 20008KT 
     PROB40 
     TEMPO 2414/2418 TS SCT033 FEW040CB
       
TAF GAGO 241100Z 2412/2512 35012KT 8000 NSC 
     PROB40 
     TEMPO 2412/2416 36015G25KT 4000 BLDU 
     PROB40 
     TEMPO 2508/2512 02015G25KT 4000 BLDU
       
GAMB 240900Z 10008KT CAVOK 33/M00 Q1012
GANR 240900Z 06008KT CAVOK 32/01 Q1013
GAMB 240900Z 10008KT CAVOK 33/M00 Q1012
GANR 240900Z 06008KT CAVOK 32/01 Q1013